createdAt,value
2023-03-21T00:01:00.271Z,100737.97
2023-03-21T00:03:27.383Z,100747.53
2023-03-21T00:05:55.380Z,100746.06
2023-03-21T00:08:24.360Z,100734.44
2023-03-21T00:10:59.478Z,100734.28
2023-03-21T00:13:28.367Z,100731.38
2023-03-21T00:16:10.210Z,100725.97
2023-03-21T00:18:42.318Z,100713.00
2023-03-21T00:24:00.873Z,100707.34
2023-03-21T00:26:28.045Z,100706.66
2023-03-21T00:28:54.883Z,100702.94
2023-03-21T00:31:21.801Z,100692.72
2023-03-21T00:33:50.094Z,100708.88
2023-03-21T00:36:17.370Z,100706.19
2023-03-21T00:38:44.478Z,100697.88
2023-03-21T00:41:54.546Z,100689.44
2023-03-21T00:44:21.498Z,100700.41
2023-03-21T00:47:00.781Z,100690.50
2023-03-21T00:49:34.774Z,100681.09
2023-03-21T00:52:38.123Z,100683.72
2023-03-21T00:54:53.712Z,100673.81
2023-03-21T00:57:29.313Z,100677.81
2023-03-21T00:59:59.506Z,100686.81
2023-03-21T01:02:26.983Z,100687.78
2023-03-21T01:04:54.537Z,100693.41
2023-03-21T01:07:21.627Z,100686.16
2023-03-21T01:09:48.676Z,100686.53
2023-03-21T01:12:15.527Z,100688.81
2023-03-21T01:14:42.572Z,100679.38
2023-03-21T01:17:09.451Z,100677.13
2023-03-21T01:19:50.539Z,100682.50
2023-03-21T01:22:18.352Z,100679.19
2023-03-21T01:24:53.881Z,100667.25
2023-03-21T01:27:23.875Z,100669.44
2023-03-21T01:29:51.050Z,100666.03
2023-03-21T01:32:18.013Z,100657.78
2023-03-21T01:34:45.204Z,100669.78
2023-03-21T01:37:12.014Z,100668.31
2023-03-21T01:39:45.823Z,100671.28
2023-03-21T01:42:15.932Z,100675.84
2023-03-21T01:45:03.186Z,100666.34
2023-03-21T01:47:44.529Z,100661.88
2023-03-21T01:50:25.673Z,100654.56
2023-03-21T01:53:16.345Z,100657.06
2023-03-21T01:55:43.510Z,100655.22
2023-03-21T01:58:24.355Z,100645.22
2023-03-21T02:01:06.600Z,100642.75
2023-03-21T02:03:50.702Z,100646.28
2023-03-21T02:06:49.540Z,100654.56
2023-03-21T02:09:37.852Z,100647.13
2023-03-21T02:12:11.369Z,100644.25
2023-03-21T02:14:39.265Z,100642.88
2023-03-21T02:17:27.392Z,100642.09
2023-03-21T02:20:15.082Z,100659.34
2023-03-21T02:23:13.013Z,100655.84
2023-03-21T02:26:01.843Z,100655.00
2023-03-21T02:28:35.397Z,100663.28
2023-03-21T02:31:14.667Z,100657.75
2023-03-21T02:33:57.078Z,100654.94
2023-03-21T02:36:27.161Z,100655.50
2023-03-21T02:39:14.833Z,100654.78
2023-03-21T02:41:49.449Z,100660.38
2023-03-21T02:44:53.373Z,100651.19
2023-03-21T02:47:44.526Z,100643.81
2023-03-21T02:50:27.709Z,100650.06
2023-03-21T02:52:56.073Z,100649.66
2023-03-21T02:55:27.187Z,100648.34
2023-03-21T02:58:11.760Z,100650.75
2023-03-21T03:00:44.233Z,100654.81
2023-03-21T03:03:24.880Z,100646.03
2023-03-21T03:05:58.408Z,100649.03
2023-03-21T03:09:03.314Z,100638.97
2023-03-21T03:11:39.321Z,100628.59
2023-03-21T03:14:38.452Z,100624.19
2023-03-21T03:17:18.201Z,100619.47
2023-03-21T03:20:18.677Z,100636.84
2023-03-21T03:22:58.374Z,100643.59
2023-03-21T03:25:42.973Z,100639.09
2023-03-21T03:28:15.179Z,100630.25
2023-03-21T03:30:57.097Z,100637.16
2023-03-21T03:33:34.860Z,100627.69
2023-03-21T03:36:06.556Z,100622.28
2023-03-21T03:38:36.994Z,100631.00
2023-03-21T03:41:12.128Z,100636.00
2023-03-21T03:43:51.298Z,100629.56
2023-03-21T03:46:27.097Z,100631.41
2023-03-21T03:48:58.660Z,100643.50
2023-03-21T03:51:44.304Z,100642.38
2023-03-21T03:54:45.881Z,100639.22
2023-03-21T03:57:14.470Z,100655.84
2023-03-21T03:59:44.185Z,100646.44
2023-03-21T04:02:22.654Z,100642.66
2023-03-21T04:04:52.996Z,100642.72
2023-03-21T04:07:22.428Z,100628.44
2023-03-21T04:09:52.192Z,100640.25
2023-03-21T04:12:20.847Z,100639.66
2023-03-21T04:15:14.182Z,100636.72
2023-03-21T04:17:45.674Z,100627.53
2023-03-21T04:20:23.532Z,100630.75
2023-03-21T04:22:57.597Z,100626.38
2023-03-21T04:25:33.297Z,100619.94
2023-03-21T04:28:03.026Z,100615.72
2023-03-21T04:31:02.333Z,100621.66
2023-03-21T04:33:38.650Z,100626.13
2023-03-21T04:36:09.527Z,100628.91
2023-03-21T04:38:37.447Z,100633.53
2023-03-21T04:41:05.039Z,100632.03
2023-03-21T04:43:32.230Z,100645.59
2023-03-21T04:45:59.281Z,100640.53
2023-03-21T04:48:26.282Z,100646.44
2023-03-21T04:50:53.337Z,100650.28
2023-03-21T04:53:20.350Z,100660.03
2023-03-21T04:55:48.165Z,100652.81
2023-03-21T04:58:16.275Z,100637.63
2023-03-21T05:00:45.706Z,100642.56
2023-03-21T05:03:19.831Z,100647.97
2023-03-21T05:05:48.870Z,100646.09
2023-03-21T05:08:16.397Z,100656.59
2023-03-21T05:10:44.026Z,100654.88
2023-03-21T05:13:11.554Z,100653.53
2023-03-21T05:15:38.840Z,100647.22
2023-03-21T05:18:10.998Z,100650.78
2023-03-21T05:20:47.199Z,100638.94
2023-03-21T05:23:18.670Z,100633.31
2023-03-21T05:25:46.034Z,100630.03
2023-03-21T05:28:22.143Z,100634.56
2023-03-21T05:30:49.454Z,100638.41
2023-03-21T05:33:16.775Z,100650.06
2023-03-21T05:35:43.862Z,100645.88
2023-03-21T05:38:12.683Z,100645.41
2023-03-21T05:40:50.330Z,100645.88
2023-03-21T05:43:18.048Z,100630.59
2023-03-21T05:45:45.798Z,100625.91
2023-03-21T05:48:12.995Z,100624.06
2023-03-21T05:50:57.864Z,100645.88
2023-03-21T05:53:25.212Z,100658.78
2023-03-21T05:55:52.104Z,100648.47
2023-03-21T05:58:44.080Z,100658.47
2023-03-21T06:01:18.952Z,100675.22
2023-03-21T06:03:54.265Z,100671.28
2023-03-21T06:06:23.224Z,100668.34
2023-03-21T06:08:54.245Z,100670.69
2023-03-21T06:11:28.008Z,100673.50
2023-03-21T06:14:11.704Z,100680.38
2023-03-21T06:16:39.602Z,100676.28
2023-03-21T06:19:07.337Z,100685.56
2023-03-21T06:21:44.962Z,100665.53
2023-03-21T06:24:12.126Z,100668.06
2023-03-21T06:26:42.884Z,100668.41
2023-03-21T06:29:10.833Z,100657.50
2023-03-21T06:31:37.905Z,100665.47
2023-03-21T06:34:05.650Z,100669.31
2023-03-21T06:36:33.450Z,100675.34
2023-03-21T06:39:01.001Z,100681.25
2023-03-21T06:41:28.524Z,100670.31
2023-03-21T06:44:02.833Z,100668.28
2023-03-21T06:46:36.214Z,100664.91
2023-03-21T06:49:04.233Z,100668.53
2023-03-21T06:51:31.634Z,100679.56
2023-03-21T06:54:06.919Z,100676.44
2023-03-21T06:56:41.451Z,100676.56
2023-03-21T06:59:11.520Z,100688.31
2023-03-21T07:02:01.472Z,100663.59
2023-03-21T07:04:29.879Z,100665.00
2023-03-21T07:06:58.182Z,100670.25
2023-03-21T07:09:29.136Z,100665.00
2023-03-21T07:12:01.903Z,100663.91
2023-03-21T07:14:39.441Z,100645.06
2023-03-21T07:17:06.362Z,100656.50
2023-03-21T07:19:33.224Z,100653.44
2023-03-21T07:22:01.591Z,100658.50
2023-03-21T07:24:29.128Z,100662.88
2023-03-21T07:39:58.362Z,100665.50
2023-03-21T07:42:26.282Z,100658.19
2023-03-21T07:44:59.321Z,100635.69
2023-03-21T07:47:29.805Z,100639.56
2023-03-21T07:49:56.702Z,100648.72
2023-03-21T07:52:23.630Z,100655.59
2023-03-21T07:54:50.575Z,100651.84
2023-03-21T07:57:17.838Z,100656.34
2023-03-21T07:59:44.687Z,100656.72
2023-03-21T08:02:20.723Z,100655.94
2023-03-21T08:04:47.893Z,100654.47
2023-03-21T08:07:14.912Z,100646.63
2023-03-21T08:09:43.799Z,100647.47
2023-03-21T08:12:11.672Z,100632.22
2023-03-21T08:14:38.841Z,100626.41
2023-03-21T08:17:06.661Z,100624.72
2023-03-21T08:19:33.671Z,100626.47
2023-03-21T08:22:01.436Z,100631.59
2023-03-21T08:24:29.168Z,100637.28
2023-03-21T08:26:56.228Z,100643.84
2023-03-21T08:29:25.169Z,100637.53
2023-03-21T08:31:52.167Z,100644.22
2023-03-21T08:34:19.727Z,100645.00
2023-03-21T08:36:47.205Z,100636.94
2023-03-21T08:39:14.321Z,100633.63
2023-03-21T08:41:41.498Z,100650.25
2023-03-21T08:44:09.692Z,100645.53
2023-03-21T08:46:36.670Z,100641.63
2023-03-21T08:49:03.646Z,100638.03
2023-03-21T08:51:31.924Z,100645.84
2023-03-21T08:53:58.907Z,100652.00
2023-03-21T08:56:25.972Z,100664.06
2023-03-21T08:58:52.957Z,100668.91
2023-03-21T09:01:20.095Z,100651.69
2023-03-21T09:03:47.157Z,100660.84
2023-03-21T09:06:14.668Z,100658.97
2023-03-21T09:08:42.184Z,100656.97
2023-03-21T09:11:10.859Z,100641.88
2023-03-21T09:13:37.841Z,100645.59
2023-03-21T09:16:05.440Z,100633.13
2023-03-21T09:18:47.360Z,100638.53
2023-03-21T09:21:16.965Z,100634.50
2023-03-21T09:23:50.888Z,100637.81
2023-03-21T09:26:18.030Z,100638.03
2023-03-21T09:28:46.274Z,100642.81
2023-03-21T09:31:16.653Z,100649.88
2023-03-21T09:33:44.861Z,100651.16
2023-03-21T09:36:14.483Z,100644.72
2023-03-21T09:38:45.720Z,100661.81
2023-03-21T09:41:37.790Z,100653.41
2023-03-21T09:44:24.765Z,100656.31
2023-03-21T09:47:04.300Z,100661.03
2023-03-21T09:49:38.069Z,100661.31
2023-03-21T09:52:14.019Z,100658.34
2023-03-21T09:54:45.438Z,100649.75
2023-03-21T09:57:50.663Z,100654.41
2023-03-21T10:00:27.523Z,100657.16
2023-03-21T10:03:01.916Z,100654.44
2023-03-21T10:05:32.134Z,100661.22
2023-03-21T10:08:24.696Z,100661.03
2023-03-21T10:11:01.352Z,100650.66
2023-03-21T10:13:33.269Z,100658.63
2023-03-21T10:16:34.824Z,100664.84
2023-03-21T10:19:09.900Z,100660.56
2023-03-21T10:24:28.673Z,100655.78
2023-03-21T10:26:57.020Z,100660.88
2023-03-21T10:29:32.730Z,100652.09
2023-03-21T10:32:00.498Z,100656.91
2023-03-21T10:34:41.878Z,100662.97
2023-03-21T10:37:09.202Z,100655.75
2023-03-21T10:39:42.198Z,100660.34
2023-03-21T10:42:23.930Z,100660.75
2023-03-21T10:44:56.705Z,100657.47
2023-03-21T10:47:27.829Z,100669.44
2023-03-21T10:50:11.113Z,100666.25
2023-03-21T10:52:45.674Z,100645.91
2023-03-21T10:55:18.770Z,100644.25
2023-03-21T10:57:47.412Z,100648.00
2023-03-21T11:00:29.368Z,100643.66
2023-03-21T11:02:57.630Z,100653.97
2023-03-21T11:05:39.052Z,100650.16
2023-03-21T11:08:18.087Z,100653.91
2023-03-21T11:11:10.123Z,100644.59
2023-03-21T11:13:38.804Z,100642.72
2023-03-21T11:16:10.401Z,100646.31
2023-03-21T11:18:45.754Z,100642.44
2023-03-21T11:21:14.941Z,100648.78
2023-03-21T11:23:48.210Z,100637.16
2023-03-21T11:26:44.566Z,100638.31
2023-03-21T11:29:43.815Z,100628.56
2023-03-21T11:32:27.487Z,100642.53
2023-03-21T11:35:00.348Z,100634.81
2023-03-21T11:37:32.373Z,100627.75
2023-03-21T11:40:28.446Z,100622.66
2023-03-21T11:42:58.080Z,100625.06
2023-03-21T11:45:36.086Z,100635.25
2023-03-21T11:48:14.477Z,100637.75
2023-03-21T11:50:50.369Z,100634.00
2023-03-21T11:53:49.936Z,100634.34
2023-03-21T11:56:26.075Z,100634.00
2023-03-21T11:59:15.981Z,100633.16
2023-03-21T12:02:06.055Z,100620.66
2023-03-21T12:04:49.060Z,100618.13
2023-03-21T12:07:28.177Z,100623.84
2023-03-21T12:10:33.472Z,100620.03
2023-03-21T12:13:05.785Z,100615.53
2023-03-21T12:15:58.825Z,100617.44
2023-03-21T12:18:34.723Z,100606.53
2023-03-21T12:21:48.705Z,100609.53
2023-03-21T12:24:20.837Z,100606.19
2023-03-21T12:26:58.159Z,100604.44
2023-03-21T12:29:43.937Z,100592.72
2023-03-21T12:32:34.526Z,100595.97
2023-03-21T12:35:35.999Z,100594.06
2023-03-21T12:38:36.621Z,100588.88
2023-03-21T12:41:10.445Z,100589.47
2023-03-21T12:43:45.766Z,100575.53
2023-03-21T12:46:24.704Z,100580.81
2023-03-21T12:49:00.492Z,100588.13
2023-03-21T12:51:33.303Z,100578.47
2023-03-21T12:54:23.691Z,100583.16
2023-03-21T12:56:58.250Z,100577.00
2023-03-21T12:59:37.353Z,100568.16
2023-03-21T13:02:20.548Z,100563.97
2023-03-21T13:05:12.900Z,100562.03
2023-03-21T13:07:44.199Z,100556.38
2023-03-21T13:10:17.279Z,100561.03
2023-03-21T13:12:51.447Z,100561.84
2023-03-21T13:15:41.899Z,100555.38
2023-03-21T13:18:33.176Z,100562.44
2023-03-21T13:21:05.759Z,100558.56
2023-03-21T13:23:38.105Z,100551.41
2023-03-21T13:26:12.866Z,100544.50
2023-03-21T13:28:42.106Z,100540.69
2023-03-21T13:31:19.004Z,100546.44
2023-03-21T13:33:49.537Z,100550.00
2023-03-21T13:36:23.362Z,100542.97
2023-03-21T13:38:52.464Z,100551.94
2023-03-21T13:41:26.729Z,100544.22
2023-03-21T13:43:53.730Z,100549.91
2023-03-21T13:46:27.016Z,100544.06
2023-03-21T13:48:58.839Z,100542.41
2023-03-21T13:51:29.450Z,100537.66
2023-03-21T13:54:07.154Z,100550.09
2023-03-21T13:56:46.529Z,100541.72
2023-03-21T13:59:35.837Z,100539.09
2023-03-21T14:02:32.187Z,100547.84
2023-03-21T14:05:14.612Z,100552.00
2023-03-21T14:07:44.178Z,100537.03
2023-03-21T14:10:23.602Z,100538.88
2023-03-21T14:12:53.330Z,100536.66
2023-03-21T14:15:24.174Z,100532.56
2023-03-21T14:17:56.727Z,100537.97
2023-03-21T14:20:30.766Z,100547.41
2023-03-21T14:22:58.459Z,100537.44
2023-03-21T14:25:37.285Z,100542.84
2023-03-21T14:28:18.215Z,100542.34
2023-03-21T14:30:46.261Z,100538.88
2023-03-21T14:33:32.676Z,100539.38
2023-03-21T14:36:07.009Z,100537.03
2023-03-21T14:38:35.913Z,100535.94
2023-03-21T14:41:04.231Z,100532.16
2023-03-21T14:43:34.595Z,100536.13
2023-03-21T14:46:02.334Z,100534.19
2023-03-21T14:48:34.634Z,100531.34
2023-03-21T14:51:12.422Z,100529.28
2023-03-21T14:53:42.742Z,100530.84
2023-03-21T14:56:25.752Z,100533.47
2023-03-21T14:58:54.070Z,100533.88
2023-03-21T15:01:28.144Z,100533.06
2023-03-21T15:03:55.821Z,100521.47
2023-03-21T15:06:22.868Z,100513.44
2023-03-21T15:09:01.944Z,100510.78
2023-03-21T15:11:32.068Z,100511.47
2023-03-21T15:14:02.292Z,100509.44
2023-03-21T15:16:30.472Z,100512.50
2023-03-21T15:18:58.684Z,100515.25
2023-03-21T15:21:51.193Z,100512.81
2023-03-21T15:24:36.303Z,100515.78
2023-03-21T15:27:13.948Z,100526.56
2023-03-21T15:29:42.944Z,100517.41
2023-03-21T15:32:28.999Z,100516.50
2023-03-21T15:35:06.372Z,100523.72
2023-03-21T15:37:36.893Z,100518.84
2023-03-21T15:40:31.391Z,100525.41
2023-03-21T15:43:21.016Z,100516.19
2023-03-21T15:45:57.042Z,100517.00
2023-03-21T15:48:29.158Z,100523.88
2023-03-21T15:50:56.246Z,100526.84
2023-03-21T15:53:23.840Z,100519.31
2023-03-21T15:55:53.532Z,100522.03
2023-03-21T15:58:26.903Z,100518.72
2023-03-21T16:01:02.323Z,100515.97
2023-03-21T16:03:32.976Z,100512.31
2023-03-21T16:06:15.491Z,100517.50
2023-03-21T16:08:46.184Z,100512.19
2023-03-21T16:11:21.060Z,100509.03
2023-03-21T16:13:48.422Z,100503.63
2023-03-21T16:16:33.593Z,100509.44
2023-03-21T16:19:01.788Z,100516.97
2023-03-21T16:21:30.998Z,100522.16
2023-03-21T16:23:58.536Z,100520.81
2023-03-21T16:26:28.854Z,100527.53
2023-03-21T16:28:56.614Z,100528.69
2023-03-21T16:31:26.723Z,100529.78
2023-03-21T16:33:53.975Z,100531.88
2023-03-21T16:36:24.552Z,100531.50
2023-03-21T16:38:53.249Z,100529.91
2023-03-21T16:41:21.490Z,100539.97
2023-03-21T16:43:48.678Z,100548.09
2023-03-21T16:46:18.189Z,100549.50
2023-03-21T16:48:47.965Z,100550.31
2023-03-21T16:51:16.826Z,100550.44
2023-03-21T16:53:44.649Z,100539.66
2023-03-21T16:56:21.946Z,100539.06
2023-03-21T16:58:49.541Z,100544.25
2023-03-21T17:01:21.887Z,100545.78
2023-03-21T17:03:48.897Z,100540.06
2023-03-21T17:06:18.473Z,100556.25
2023-03-21T17:08:45.933Z,100545.84
2023-03-21T17:11:17.003Z,100549.63
2023-03-21T17:13:44.790Z,100549.75
2023-03-21T17:16:17.428Z,100551.25
2023-03-21T17:18:45.275Z,100552.56
2023-03-21T17:21:14.937Z,100546.41
2023-03-21T17:23:42.571Z,100543.44
2023-03-21T17:26:13.606Z,100542.31
2023-03-21T17:28:41.578Z,100534.28
2023-03-21T17:31:20.851Z,100510.59
2023-03-21T17:33:48.560Z,100496.19
2023-03-21T17:36:34.065Z,100470.53
2023-03-21T17:39:01.400Z,100487.59
2023-03-21T17:41:28.839Z,100489.91
2023-03-21T17:43:57.461Z,100497.09
2023-03-21T17:46:27.339Z,100475.34
2023-03-21T17:48:54.974Z,100480.31
2023-03-21T17:51:23.994Z,100486.75
2023-03-21T17:53:51.224Z,100497.94
2023-03-21T17:56:26.289Z,100513.25
2023-03-21T17:58:57.330Z,100524.13
2023-03-21T18:01:24.437Z,100527.03
2023-03-21T18:03:51.798Z,100524.97
2023-03-21T18:06:21.027Z,100522.41
2023-03-21T18:08:49.098Z,100522.66
2023-03-21T18:11:18.148Z,100521.88
2023-03-21T18:13:45.602Z,100524.56
2023-03-21T18:16:14.998Z,100519.34
2023-03-21T18:18:42.490Z,100534.91
2023-03-21T18:21:10.916Z,100537.47
2023-03-21T18:23:41.299Z,100536.75
2023-03-21T18:26:10.831Z,100541.34
2023-03-21T18:28:40.006Z,100539.38
2023-03-21T18:31:15.685Z,100551.38
2023-03-21T18:33:46.766Z,100548.09
2023-03-21T18:36:24.489Z,100538.75
2023-03-21T18:38:52.253Z,100539.38
2023-03-21T18:41:19.851Z,100549.94
2023-03-21T18:44:13.373Z,100539.94
2023-03-21T18:46:34.005Z,100535.19
2023-03-21T18:49:19.887Z,100525.53
2023-03-21T18:51:48.219Z,100531.06
2023-03-21T18:54:15.791Z,100519.41
2023-03-21T18:59:34.638Z,100531.63
2023-03-21T19:02:04.112Z,100516.47
2023-03-21T19:04:32.269Z,100515.75
2023-03-21T19:07:00.339Z,100526.69
2023-03-21T19:09:31.575Z,100512.69
2023-03-21T19:12:00.054Z,100524.69
2023-03-21T19:14:27.724Z,100522.66
2023-03-21T19:17:47.208Z,100519.63
2023-03-21T19:19:43.864Z,100519.56
2023-03-21T19:22:11.410Z,100517.69
2023-03-21T19:24:40.427Z,100519.31
2023-03-21T19:27:07.725Z,100518.41
2023-03-21T19:41:55.373Z,100500.31
2023-03-21T19:44:30.929Z,100487.44
2023-03-21T19:46:58.038Z,100494.94
2023-03-21T19:49:34.760Z,100494.69
2023-03-21T19:52:13.510Z,100487.19
2023-03-21T19:54:40.390Z,100483.06
2023-03-21T19:57:09.653Z,100477.22
2023-03-21T19:59:36.627Z,100472.44
2023-03-21T20:02:27.038Z,100471.88
2023-03-21T20:04:51.016Z,100476.72
2023-03-21T20:07:17.918Z,100481.75
2023-03-21T20:09:51.756Z,100486.69
2023-03-21T20:12:19.838Z,100495.97
2023-03-21T20:14:49.106Z,100491.00
2023-03-21T20:17:16.614Z,100492.91
2023-03-21T20:19:43.513Z,100499.66
2023-03-21T20:22:21.885Z,100502.63
2023-03-21T20:24:55.282Z,100495.97
2023-03-21T20:27:25.302Z,100500.41
2023-03-21T20:30:10.051Z,100502.16
2023-03-21T20:32:38.661Z,100497.09
2023-03-21T20:35:19.143Z,100500.31
2023-03-21T20:37:53.092Z,100503.28
2023-03-21T20:40:21.580Z,100488.66
2023-03-21T20:42:48.806Z,100485.94
2023-03-21T20:45:17.448Z,100486.03
2023-03-21T20:47:45.650Z,100485.16
2023-03-21T20:50:14.292Z,100490.38
2023-03-21T20:53:01.255Z,100489.47
2023-03-21T20:55:34.394Z,100498.41
2023-03-21T20:58:02.162Z,100509.19
2023-03-21T21:00:29.912Z,100508.44
2023-03-21T21:02:58.166Z,100508.22
2023-03-21T21:05:33.100Z,100508.91
2023-03-21T21:08:01.929Z,100519.25
2023-03-21T21:10:29.758Z,100518.84
2023-03-21T21:12:56.970Z,100525.56
2023-03-21T21:15:24.081Z,100526.75
2023-03-21T21:18:05.343Z,100527.28
2023-03-21T21:20:33.795Z,100526.25
2023-03-21T21:23:01.117Z,100517.50
2023-03-21T21:25:30.644Z,100523.94
2023-03-21T21:27:57.919Z,100523.75
2023-03-21T21:30:24.983Z,100524.41
2023-03-21T21:32:51.910Z,100520.44
2023-03-21T21:35:20.614Z,100521.13
2023-03-21T21:37:47.755Z,100523.94
2023-03-21T21:40:18.988Z,100522.16
2023-03-21T21:42:46.382Z,100526.22
2023-03-21T21:45:13.826Z,100521.13
2023-03-21T21:47:41.023Z,100532.81
2023-03-21T21:50:08.395Z,100524.34
2023-03-21T21:52:37.466Z,100528.34
2023-03-21T21:55:06.627Z,100515.97
2023-03-21T21:57:34.858Z,100502.16
2023-03-21T22:00:07.006Z,100503.44
2023-03-21T22:02:40.768Z,100505.94
2023-03-21T22:05:09.062Z,100511.56
2023-03-21T22:07:38.174Z,100507.88
2023-03-21T22:10:06.703Z,100508.00
2023-03-21T22:12:33.994Z,100512.69
2023-03-21T22:15:01.212Z,100502.50
2023-03-21T22:17:28.896Z,100498.75
2023-03-21T22:20:05.506Z,100502.13
2023-03-21T22:22:34.427Z,100492.03
2023-03-21T22:25:01.386Z,100495.19
2023-03-21T22:27:28.708Z,100485.13
2023-03-21T22:29:56.193Z,100492.53
2023-03-21T22:32:23.939Z,100498.53
2023-03-21T22:34:50.831Z,100487.34
2023-03-21T22:37:27.561Z,100478.38
2023-03-21T22:40:06.301Z,100487.34
2023-03-21T22:42:40.439Z,100486.03
2023-03-21T22:45:14.186Z,100485.72
2023-03-21T22:47:43.593Z,100487.88
2023-03-21T22:50:24.822Z,100484.59
2023-03-21T22:52:55.140Z,100482.63
2023-03-21T22:55:29.154Z,100486.22
2023-03-21T22:58:03.960Z,100492.59
2023-03-21T23:00:41.195Z,100487.44
2023-03-21T23:03:13.529Z,100490.09
2023-03-21T23:05:46.289Z,100488.13
2023-03-21T23:08:16.631Z,100498.72
2023-03-21T23:10:46.061Z,100495.50
2023-03-21T23:13:13.103Z,100498.66
2023-03-21T23:15:40.716Z,100497.56
2023-03-21T23:18:07.769Z,100499.75
2023-03-21T23:20:35.512Z,100492.78
2023-03-21T23:23:03.117Z,100492.38
2023-03-21T23:25:30.507Z,100490.03
2023-03-21T23:27:57.698Z,100490.69
2023-03-21T23:30:24.853Z,100471.09
2023-03-21T23:32:52.366Z,100476.19
2023-03-21T23:35:19.405Z,100464.50
2023-03-21T23:37:52.648Z,100457.47
2023-03-21T23:40:20.615Z,100461.75
2023-03-21T23:42:47.562Z,100464.00
2023-03-21T23:45:14.600Z,100458.28
2023-03-21T23:47:41.674Z,100461.88
2023-03-21T23:50:13.243Z,100462.75
2023-03-21T23:52:41.784Z,100467.84
2023-03-21T23:55:09.286Z,100469.47
2023-03-21T23:57:38.332Z,100483.41
